Sea Fate — 3FNV5 — position and weather

sailwx.info

Track history (hours):
 
Tides and Currents Weather Stations Pressure Air Temp Water Temp Dewpoint Dewpoint Depression Visibility Wind Speed Wind Dir Waves Ship Positions

Sea Fate

Last reported at 2017-Sep-20 18:04 UTC. Time now 2017-Sep-21 23:26 UTC.
Position N 01°13' E 103°30'.

Length 152 m; draft 5.4 m.

Type: Cargo ship. MMSI: 354167000.

Date/timePositionNaut miles runAvg speedWind from/ knotsBaromVisibWave heightAir tempDewpointWater temp
2017-Sep-20 18:04N 01°13' E 103°30'110.8
2017-Sep-20 17:59N 01°13' E 103°31'510.3
2017-Sep-20 17:30N 01°12' E 103°36'510.2
2017-Sep-20 17:00N 01°10' E 103°41'5 8.9
2017-Sep-20 16:30N 01°09' E 103°45'510.4
2017-Sep-20 15:59N 01°11' E 103°50'5 9.8
2017-Sep-20 15:30N 01°13' E 103°54'  
2017-Sep-11 22:57N 31°06' E 122°18'813.3
2017-Sep-11 22:23N 31°11' E 122°11'512.9
2017-Sep-11 22:00N 31°13' E 122°06'612.6
2017-Sep-11 21:30N 31°15' E 121°59'612.0
2017-Sep-11 21:00N 31°16' E 121°52'611.2
2017-Sep-11 20:31N 31°18' E 121°46'510.6
2017-Sep-11 20:00N 31°20' E 121°41'5 9.4
2017-Sep-11 19:30N 31°23' E 121°36'4 7.6
2017-Sep-11 19:00N 31°25' E 121°32'5 9.0
2017-Sep-11 18:30N 31°27' E 121°28'4 8.0
2017-Sep-11 18:00N 31°29' E 121°24'1 2.1
2017-Sep-11 17:30N 31°30' E 121°23'0 0.0
2017-Sep-11 16:44N 31°30' E 121°23'0 0.0
2017-Sep-11 16:26N 31°30' E 121°23'0 0.0
2017-Sep-11 15:59N 31°30' E 121°23'0 0.0
2017-Sep-11 15:29N 31°30' E 121°23'0 0.0
2017-Sep-11 14:59N 31°30' E 121°23'0 0.0
2017-Sep-11 13:53N 31°30' E 121°23'0 0.0
2017-Sep-11 13:15N 31°30' E 121°23'0 0.0
2017-Sep-11 12:59N 31°30' E 121°23'0 0.0
2017-Sep-11 12:29N 31°30' E 121°23'0 0.0
2017-Sep-11 11:59N 31°30' E 121°23'0 0.0
2017-Sep-11 11:26N 31°30' E 121°23'0 0.0
2017-Sep-11 10:56N 31°30' E 121°23'0 0.0
2017-Sep-11 10:29N 31°30' E 121°23'0 0.0
2017-Sep-11 09:59N 31°30' E 121°23'0 0.0
2017-Sep-11 09:26N 31°30' E 121°23'0 0.0
2017-Sep-11 08:59N 31°30' E 121°23'0 0.0
2017-Sep-11 08:29N 31°30' E 121°23'0 0.0
2017-Sep-11 07:47N 31°30' E 121°23'0 0.0
2017-Sep-11 07:29N 31°30' E 121°23'0 0.0
2017-Sep-11 06:59N 31°30' E 121°23'0 0.0
2017-Sep-11 06:26N 31°30' E 121°23'0 0.0
2017-Sep-11 05:59N 31°30' E 121°23'0 0.0
2017-Sep-11 05:26N 31°30' E 121°23'0 0.0
2017-Sep-11 04:59N 31°30' E 121°23'0 0.0
2017-Sep-11 04:29N 31°30' E 121°23'0 0.0
2017-Sep-11 03:53N 31°30' E 121°23'0 0.0
2017-Sep-11 03:29N 31°30' E 121°23'0 0.0
2017-Sep-11 02:50N 31°30' E 121°23'0 0.0
2017-Sep-11 02:29N 31°30' E 121°23'0 0.0
2017-Sep-11 01:59N 31°30' E 121°23'0 0.0
2017-Sep-11 01:26N 31°30' E 121°23'0 0.0
2017-Sep-11 00:59N 31°30' E 121°23'0 0.0
2017-Sep-11 00:14N 31°30' E 121°23'0 0.0
2017-Sep-10 23:56N 31°30' E 121°23'0 0.0
2017-Sep-10 23:23N 31°30' E 121°23'0 0.0
2017-Sep-10 22:53N 31°30' E 121°23'0 0.0
2017-Sep-10 22:26N 31°30' E 121°23'0 0.0
2017-Sep-10 21:59N 31°30' E 121°23'0 0.0
2017-Sep-10 21:23N 31°30' E 121°23'0 0.0
2017-Sep-10 20:53N 31°30' E 121°23'0 0.0
2017-Sep-10 20:29N 31°30' E 121°23'0 0.0
2017-Sep-10 19:56N 31°30' E 121°23'0 0.0
2017-Sep-10 19:11N 31°30' E 121°23'  
Track history (hours):
 
Tides and Currents Weather Stations Pressure Air Temp Water Temp Dewpoint Dewpoint Depression Visibility Wind Speed Wind Dir Waves Ship Positions

Sea Fate

Last reported at 2017-Sep-20 18:04 UTC. Time now 2017-Sep-21 23:26 UTC.
Position N 01°13' E 103°30'.

Length 152 m; draft 5.4 m.

Type: Cargo ship. MMSI: 354167000.

Date/timePositionNaut miles runAvg speedWind from/ knotsBaromVisibWave heightAir tempDewpointWater temp
2017-Sep-20 18:04N 01°13' E 103°30'110.8
2017-Sep-20 17:59N 01°13' E 103°31'510.3
2017-Sep-20 17:30N 01°12' E 103°36'510.2
2017-Sep-20 17:00N 01°10' E 103°41'5 8.9
2017-Sep-20 16:30N 01°09' E 103°45'510.4
2017-Sep-20 15:59N 01°11' E 103°50'5 9.8
2017-Sep-20 15:30N 01°13' E 103°54'  
2017-Sep-11 22:57N 31°06' E 122°18'813.3
2017-Sep-11 22:23N 31°11' E 122°11'512.9
2017-Sep-11 22:00N 31°13' E 122°06'612.6
2017-Sep-11 21:30N 31°15' E 121°59'612.0
2017-Sep-11 21:00N 31°16' E 121°52'611.2
2017-Sep-11 20:31N 31°18' E 121°46'510.6
2017-Sep-11 20:00N 31°20' E 121°41'5 9.4
2017-Sep-11 19:30N 31°23' E 121°36'4 7.6
2017-Sep-11 19:00N 31°25' E 121°32'5 9.0
2017-Sep-11 18:30N 31°27' E 121°28'4 8.0
2017-Sep-11 18:00N 31°29' E 121°24'1 2.1
2017-Sep-11 17:30N 31°30' E 121°23'0 0.0
2017-Sep-11 16:44N 31°30' E 121°23'0 0.0
2017-Sep-11 16:26N 31°30' E 121°23'0 0.0
2017-Sep-11 15:59N 31°30' E 121°23'0 0.0
2017-Sep-11 15:29N 31°30' E 121°23'0 0.0
2017-Sep-11 14:59N 31°30' E 121°23'0 0.0
2017-Sep-11 13:53N 31°30' E 121°23'0 0.0
2017-Sep-11 13:15N 31°30' E 121°23'0 0.0
2017-Sep-11 12:59N 31°30' E 121°23'0 0.0
2017-Sep-11 12:29N 31°30' E 121°23'0 0.0
2017-Sep-11 11:59N 31°30' E 121°23'0 0.0
2017-Sep-11 11:26N 31°30' E 121°23'0 0.0
2017-Sep-11 10:56N 31°30' E 121°23'0 0.0
2017-Sep-11 10:29N 31°30' E 121°23'0 0.0
2017-Sep-11 09:59N 31°30' E 121°23'0 0.0
2017-Sep-11 09:26N 31°30' E 121°23'0 0.0
2017-Sep-11 08:59N 31°30' E 121°23'0 0.0
2017-Sep-11 08:29N 31°30' E 121°23'0 0.0
2017-Sep-11 07:47N 31°30' E 121°23'0 0.0
2017-Sep-11 07:29N 31°30' E 121°23'0 0.0
2017-Sep-11 06:59N 31°30' E 121°23'0 0.0
2017-Sep-11 06:26N 31°30' E 121°23'0 0.0
2017-Sep-11 05:59N 31°30' E 121°23'0 0.0
2017-Sep-11 05:26N 31°30' E 121°23'0 0.0
2017-Sep-11 04:59N 31°30' E 121°23'0 0.0
2017-Sep-11 04:29N 31°30' E 121°23'0 0.0
2017-Sep-11 03:53N 31°30' E 121°23'0 0.0
2017-Sep-11 03:29N 31°30' E 121°23'0 0.0
2017-Sep-11 02:50N 31°30' E 121°23'0 0.0
2017-Sep-11 02:29N 31°30' E 121°23'0 0.0
2017-Sep-11 01:59N 31°30' E 121°23'0 0.0
2017-Sep-11 01:26N 31°30' E 121°23'0 0.0
2017-Sep-11 00:59N 31°30' E 121°23'0 0.0
2017-Sep-11 00:14N 31°30' E 121°23'0 0.0
2017-Sep-10 23:56N 31°30' E 121°23'0 0.0
2017-Sep-10 23:23N 31°30' E 121°23'0 0.0
2017-Sep-10 22:53N 31°30' E 121°23'0 0.0
2017-Sep-10 22:26N 31°30' E 121°23'0 0.0
2017-Sep-10 21:59N 31°30' E 121°23'0 0.0
2017-Sep-10 21:23N 31°30' E 121°23'0 0.0
2017-Sep-10 20:53N 31°30' E 121°23'0 0.0
2017-Sep-10 20:29N 31°30' E 121°23'0 0.0
2017-Sep-10 19:56N 31°30' E 121°23'0 0.0
2017-Sep-10 19:11N 31°30' E 121°23'  

Dump ship's entire track history